LAP1324 SGAS-SCEL
Flight info
| Callsign | LAP1324 |
|---|---|
| Flight time | N/A |
| Altitude | 34000 |
| Route | ARPAS ARPAS UZ124 SIS UL531 CBA UZ105 UMKAL UMKAL7C |
| Aircraft | A320/M-SDE3FGHIRWY/LB1 |
Departure
| Time | N/A |
|---|---|
| Airport | Silvio Pettirossi International Airport (SGAS) |
Arrival
| Time | 2026-05-03 21:43 |
|---|---|
| Airport | Comodoro Arturo Merino Benítez International Airport (SCEL) |
| Time | Latitude | Longitude | Altitude | Speed | Heading |
|---|---|---|---|---|---|
| 2026-05-03 20:15 | -29.61546 | -61.60897 | 34082 ft | 410 kts | 228° |
| 2026-05-03 20:15 | -29.64822 | -61.64892 | 34100 ft | 410 kts | 228° |
| 2026-05-03 20:16 | -29.68731 | -61.69669 | 34095 ft | 410 kts | 228° |
| 2026-05-03 20:16 | -29.72630 | -61.74452 | 34091 ft | 410 kts | 228° |
| 2026-05-03 20:17 | -29.76535 | -61.79250 | 34081 ft | 410 kts | 228° |
| 2026-05-03 20:17 | -29.80434 | -61.84045 | 34082 ft | 410 kts | 228° |
| 2026-05-03 20:18 | -29.84310 | -61.88810 | 34086 ft | 410 kts | 229° |
| 2026-05-03 20:18 | -29.88106 | -61.93717 | 34072 ft | 409 kts | 234° |
| 2026-05-03 20:19 | -29.91525 | -61.98955 | 34074 ft | 409 kts | 234° |
| 2026-05-03 20:19 | -29.94946 | -62.04206 | 34075 ft | 409 kts | 234° |
| 2026-05-03 20:20 | -29.98359 | -62.09462 | 34070 ft | 409 kts | 234° |
| 2026-05-03 20:20 | -30.01766 | -62.14726 | 34092 ft | 409 kts | 234° |
| 2026-05-03 20:21 | -30.05176 | -62.19987 | 34081 ft | 410 kts | 234° |
| 2026-05-03 20:21 | -30.08587 | -62.25260 | 34069 ft | 410 kts | 234° |
| 2026-05-03 20:22 | -30.11990 | -62.30536 | 34065 ft | 410 kts | 234° |
| 2026-05-03 20:22 | -30.15365 | -62.35784 | 34066 ft | 410 kts | 234° |
| 2026-05-03 20:23 | -30.18765 | -62.41070 | 34058 ft | 410 kts | 234° |
| 2026-05-03 20:23 | -30.22171 | -62.46352 | 34059 ft | 410 kts | 234° |
| 2026-05-03 20:24 | -30.25574 | -62.51642 | 34063 ft | 410 kts | 234° |
| 2026-05-03 20:24 | -30.28976 | -62.56934 | 34047 ft | 410 kts | 234° |
| 2026-05-03 20:25 | -30.32369 | -62.62224 | 34053 ft | 410 kts | 235° |
| 2026-05-03 20:25 | -30.35754 | -62.67530 | 34049 ft | 410 kts | 235° |
| 2026-05-03 20:26 | -30.39143 | -62.72835 | 34053 ft | 410 kts | 235° |
| 2026-05-03 20:26 | -30.42526 | -62.78152 | 34068 ft | 410 kts | 235° |
| 2026-05-03 20:27 | -30.45903 | -62.83480 | 34053 ft | 410 kts | 235° |
| 2026-05-03 20:27 | -30.49253 | -62.88773 | 34052 ft | 410 kts | 235° |
| 2026-05-03 20:28 | -30.52620 | -62.94107 | 34053 ft | 410 kts | 235° |
| 2026-05-03 20:28 | -30.55985 | -62.99446 | 34053 ft | 410 kts | 235° |
| 2026-05-03 20:29 | -30.59358 | -63.04790 | 34046 ft | 410 kts | 235° |
| 2026-05-03 20:29 | -30.62732 | -63.10128 | 34047 ft | 410 kts | 235° |
| 2026-05-03 20:30 | -30.66098 | -63.15478 | 34047 ft | 410 kts | 236° |
| 2026-05-03 20:30 | -30.69456 | -63.20831 | 34049 ft | 410 kts | 236° |
| 2026-05-03 20:31 | -30.72812 | -63.26183 | 34043 ft | 410 kts | 236° |
| 2026-05-03 20:31 | -30.76172 | -63.31552 | 34045 ft | 410 kts | 236° |
| 2026-05-03 20:32 | -30.79521 | -63.36913 | 34061 ft | 410 kts | 236° |
| 2026-05-03 20:32 | -30.82824 | -63.42316 | 34061 ft | 410 kts | 236° |
| 2026-05-03 20:33 | -30.86121 | -63.47734 | 34053 ft | 410 kts | 236° |
| 2026-05-03 20:33 | -30.89416 | -63.53152 | 34045 ft | 410 kts | 236° |
| 2026-05-03 20:34 | -30.92721 | -63.58556 | 34040 ft | 410 kts | 236° |
| 2026-05-03 20:34 | -30.96086 | -63.63917 | 34040 ft | 410 kts | 236° |
| 2026-05-03 20:35 | -30.99472 | -63.69269 | 34038 ft | 410 kts | 236° |
| 2026-05-03 20:35 | -31.02825 | -63.74590 | 34030 ft | 410 kts | 236° |
| 2026-05-03 20:36 | -31.06185 | -63.79960 | 34031 ft | 410 kts | 236° |
| 2026-05-03 20:36 | -31.09541 | -63.85328 | 34031 ft | 410 kts | 236° |
| 2026-05-03 20:37 | -31.12899 | -63.90708 | 34022 ft | 410 kts | 236° |
| 2026-05-03 20:37 | -31.16249 | -63.96093 | 34022 ft | 410 kts | 236° |
| 2026-05-03 20:38 | -31.19603 | -64.01483 | 34020 ft | 410 kts | 236° |
| 2026-05-03 20:38 | -31.22959 | -64.06866 | 34027 ft | 410 kts | 236° |
| 2026-05-03 20:39 | -31.26307 | -64.12260 | 34026 ft | 409 kts | 236° |
| 2026-05-03 20:39 | -31.29644 | -64.17649 | 34025 ft | 409 kts | 236° |
| 2026-05-03 20:40 | -31.32404 | -64.23412 | 34025 ft | 406 kts | 248° |
| 2026-05-03 20:40 | -31.34563 | -64.29525 | 34021 ft | 406 kts | 248° |
| 2026-05-03 20:41 | -31.36731 | -64.35631 | 34017 ft | 406 kts | 248° |
| 2026-05-03 20:41 | -31.38895 | -64.41747 | 34013 ft | 406 kts | 248° |
| 2026-05-03 20:42 | -31.41030 | -64.47806 | 34006 ft | 405 kts | 248° |
| 2026-05-03 20:42 | -31.43170 | -64.53912 | 33999 ft | 405 kts | 248° |
| 2026-05-03 20:42 | -31.44241 | -64.56967 | 34129 ft | 405 kts | 248° |
| 2026-05-03 20:43 | -31.45312 | -64.60017 | 34360 ft | 403 kts | 248° |
| 2026-05-03 20:43 | -31.46375 | -64.63052 | 34562 ft | 402 kts | 248° |
| 2026-05-03 20:43 | -31.47435 | -64.66079 | 34773 ft | 401 kts | 248° |
| 2026-05-03 20:43 | -31.48490 | -64.69094 | 35001 ft | 399 kts | 248° |
| 2026-05-03 20:44 | -31.49543 | -64.72102 | 35205 ft | 398 kts | 248° |
| 2026-05-03 20:44 | -31.50592 | -64.75104 | 35383 ft | 398 kts | 248° |
| 2026-05-03 20:44 | -31.51637 | -64.78100 | 35586 ft | 397 kts | 248° |
| 2026-05-03 20:44 | -31.52681 | -64.81087 | 35787 ft | 395 kts | 248° |
| 2026-05-03 20:45 | -31.53722 | -64.84067 | 35949 ft | 395 kts | 248° |
| 2026-05-03 20:45 | -31.55786 | -64.89993 | 35973 ft | 394 kts | 248° |
| 2026-05-03 20:46 | -31.57848 | -64.95950 | 35971 ft | 394 kts | 248° |
| 2026-05-03 20:46 | -31.59907 | -65.01904 | 35964 ft | 393 kts | 248° |
| 2026-05-03 20:47 | -31.61963 | -65.07857 | 35967 ft | 393 kts | 248° |
| 2026-05-03 20:47 | -31.64015 | -65.13804 | 35964 ft | 394 kts | 248° |
| 2026-05-03 20:48 | -31.66072 | -65.19767 | 35968 ft | 394 kts | 248° |
| 2026-05-03 20:48 | -31.68135 | -65.25740 | 35958 ft | 395 kts | 249° |
| 2026-05-03 20:49 | -31.70193 | -65.31720 | 35963 ft | 394 kts | 249° |
| 2026-05-03 20:49 | -31.72242 | -65.37703 | 35955 ft | 394 kts | 249° |
| 2026-05-03 20:50 | -31.74283 | -65.43668 | 35964 ft | 394 kts | 249° |
| 2026-05-03 20:50 | -31.76324 | -65.49639 | 35957 ft | 393 kts | 249° |
| 2026-05-03 20:51 | -31.78354 | -65.55602 | 35952 ft | 393 kts | 249° |
| 2026-05-03 20:51 | -31.80374 | -65.61529 | 35944 ft | 393 kts | 249° |
| 2026-05-03 20:52 | -31.82409 | -65.67496 | 35942 ft | 393 kts | 249° |
| 2026-05-03 20:52 | -31.84442 | -65.73475 | 35941 ft | 394 kts | 249° |
| 2026-05-03 20:53 | -31.86466 | -65.79460 | 35939 ft | 394 kts | 249° |
| 2026-05-03 20:53 | -31.88489 | -65.85448 | 35940 ft | 394 kts | 249° |
| 2026-05-03 20:54 | -31.90514 | -65.91441 | 35941 ft | 394 kts | 249° |
| 2026-05-03 20:54 | -31.93545 | -66.00451 | 35919 ft | 395 kts | 249° |
| 2026-05-03 20:55 | -31.95567 | -66.06485 | 35926 ft | 396 kts | 249° |
| 2026-05-03 20:55 | -31.97589 | -66.12531 | 35934 ft | 397 kts | 249° |
| 2026-05-03 20:56 | -31.99609 | -66.18581 | 35934 ft | 397 kts | 249° |
| 2026-05-03 20:56 | -32.01634 | -66.24638 | 35937 ft | 397 kts | 249° |
| 2026-05-03 20:57 | -32.03652 | -66.30702 | 35925 ft | 397 kts | 250° |
| 2026-05-03 20:57 | -32.05653 | -66.36729 | 35926 ft | 398 kts | 250° |
| 2026-05-03 20:58 | -32.07667 | -66.42811 | 35922 ft | 398 kts | 250° |
| 2026-05-03 20:58 | -32.09677 | -66.48897 | 35925 ft | 398 kts | 250° |
| 2026-05-03 20:59 | -32.11375 | -66.55106 | 35918 ft | 398 kts | 255° |
| 2026-05-03 20:59 | -32.12872 | -66.61390 | 35907 ft | 398 kts | 255° |
| 2026-05-03 21:00 | -32.13877 | -66.65599 | 35907 ft | 398 kts | 255° |
| 2026-05-03 21:00 | -32.15617 | -66.72926 | 35913 ft | 399 kts | 255° |
| 2026-05-03 21:01 | -32.17108 | -66.79235 | 35911 ft | 399 kts | 255° |
| 2026-05-03 21:01 | -32.18844 | -66.86577 | 35911 ft | 399 kts | 255° |
| 2026-05-03 21:02 | -32.20088 | -66.91861 | 35907 ft | 399 kts | 255° |
| 2026-05-03 21:02 | -32.21571 | -66.98175 | 35908 ft | 399 kts | 255° |
| 2026-05-03 21:03 | -32.23049 | -67.04498 | 35908 ft | 399 kts | 255° |
| 2026-05-03 21:03 | -32.24528 | -67.10821 | 35908 ft | 399 kts | 255° |
| 2026-05-03 21:04 | -32.26010 | -67.17145 | 35904 ft | 399 kts | 255° |
| 2026-05-03 21:04 | -32.27482 | -67.23473 | 35894 ft | 399 kts | 255° |
| 2026-05-03 21:05 | -32.28951 | -67.29801 | 35886 ft | 400 kts | 255° |
| 2026-05-03 21:05 | -32.30421 | -67.36142 | 35888 ft | 400 kts | 255° |
| 2026-05-03 21:06 | -32.31892 | -67.42488 | 35891 ft | 400 kts | 255° |
| 2026-05-03 21:06 | -32.33345 | -67.48798 | 35893 ft | 400 kts | 255° |
| 2026-05-03 21:07 | -32.34804 | -67.55152 | 35897 ft | 401 kts | 255° |
| 2026-05-03 21:07 | -32.36262 | -67.61521 | 35900 ft | 401 kts | 255° |
| 2026-05-03 21:08 | -32.37718 | -67.67881 | 35898 ft | 400 kts | 255° |
| 2026-05-03 21:08 | -32.39169 | -67.74243 | 35896 ft | 400 kts | 255° |
| 2026-05-03 21:09 | -32.40617 | -67.80611 | 35896 ft | 400 kts | 255° |
| 2026-05-03 21:09 | -32.42069 | -67.86968 | 35896 ft | 400 kts | 255° |
| 2026-05-03 21:10 | -32.43513 | -67.93333 | 35894 ft | 400 kts | 255° |
| 2026-05-03 21:10 | -32.44943 | -67.99701 | 35894 ft | 400 kts | 255° |
| 2026-05-03 21:11 | -32.46377 | -68.06069 | 35894 ft | 400 kts | 255° |
| 2026-05-03 21:11 | -32.47813 | -68.12433 | 35894 ft | 400 kts | 255° |
| 2026-05-03 21:12 | -32.49232 | -68.18758 | 35897 ft | 400 kts | 255° |
| 2026-05-03 21:12 | -32.50658 | -68.25128 | 35894 ft | 400 kts | 255° |
| 2026-05-03 21:13 | -32.52078 | -68.31492 | 35894 ft | 400 kts | 255° |
| 2026-05-03 21:13 | -32.53494 | -68.37860 | 35896 ft | 399 kts | 256° |
| 2026-05-03 21:14 | -32.54902 | -68.44229 | 35896 ft | 399 kts | 256° |
| 2026-05-03 21:14 | -32.56314 | -68.50602 | 35895 ft | 399 kts | 256° |
| 2026-05-03 21:15 | -32.57720 | -68.56974 | 35905 ft | 400 kts | 256° |
| 2026-05-03 21:15 | -32.59127 | -68.63351 | 35919 ft | 400 kts | 256° |
| 2026-05-03 21:16 | -32.60527 | -68.69729 | 35927 ft | 400 kts | 256° |
| 2026-05-03 21:16 | -32.61927 | -68.76113 | 35933 ft | 400 kts | 256° |
| 2026-05-03 21:17 | -32.63089 | -68.81425 | 35960 ft | 400 kts | 256° |
| 2026-05-03 21:17 | -32.64718 | -68.88902 | 35927 ft | 401 kts | 256° |
| 2026-05-03 21:18 | -32.66115 | -68.95331 | 35912 ft | 403 kts | 256° |
| 2026-05-03 21:18 | -32.67507 | -69.01780 | 35906 ft | 404 kts | 256° |
| 2026-05-03 21:19 | -32.68901 | -69.08239 | 35898 ft | 404 kts | 256° |
| 2026-05-03 21:19 | -32.70295 | -69.14717 | 35898 ft | 405 kts | 256° |
| 2026-05-03 21:20 | -32.71693 | -69.21195 | 35883 ft | 405 kts | 256° |
| 2026-05-03 21:20 | -32.73084 | -69.27697 | 35911 ft | 407 kts | 256° |
| 2026-05-03 21:21 | -32.74477 | -69.34213 | 35913 ft | 408 kts | 256° |
| 2026-05-03 21:21 | -32.75867 | -69.40738 | 35969 ft | 407 kts | 256° |
| 2026-05-03 21:22 | -32.77260 | -69.47276 | 35969 ft | 408 kts | 256° |
| 2026-05-03 21:22 | -32.78637 | -69.53788 | 36225 ft | 407 kts | 257° |
| 2026-05-03 21:23 | -32.79125 | -69.56953 | 36804 ft | 373 kts | 262° |
| 2026-05-03 21:23 | -32.79560 | -69.59933 | 36369 ft | 365 kts | 257° |
| 2026-05-03 21:23 | -32.80195 | -69.62885 | 35401 ft | 372 kts | 255° |
| 2026-05-03 21:23 | -32.80939 | -69.65864 | 34441 ft | 380 kts | 254° |
| 2026-05-03 21:24 | -32.81706 | -69.68894 | 33511 ft | 385 kts | 254° |
| 2026-05-03 21:24 | -32.82451 | -69.71974 | 32430 ft | 390 kts | 255° |
| 2026-05-03 21:24 | -32.83158 | -69.75095 | 31455 ft | 392 kts | 256° |
| 2026-05-03 21:24 | -32.83832 | -69.78227 | 30669 ft | 390 kts | 256° |
| 2026-05-03 21:25 | -32.84485 | -69.81355 | 29854 ft | 390 kts | 256° |
| 2026-05-03 21:25 | -32.85124 | -69.84469 | 29293 ft | 382 kts | 256° |
| 2026-05-03 21:25 | -32.85746 | -69.87501 | 28851 ft | 373 kts | 257° |
| 2026-05-03 21:25 | -32.86356 | -69.90478 | 28281 ft | 367 kts | 257° |
| 2026-05-03 21:26 | -32.86961 | -69.93403 | 27794 ft | 360 kts | 257° |
| 2026-05-03 21:26 | -32.87556 | -69.96271 | 27290 ft | 355 kts | 257° |
| 2026-05-03 21:26 | -32.88041 | -69.99124 | 26698 ft | 350 kts | 263° |
| 2026-05-03 21:26 | -32.88133 | -70.01990 | 26147 ft | 345 kts | 272° |
| 2026-05-03 21:27 | -32.87896 | -70.04836 | 25577 ft | 346 kts | 274° |
| 2026-05-03 21:27 | -32.87629 | -70.07668 | 25036 ft | 344 kts | 274° |
| 2026-05-03 21:27 | -32.87370 | -70.10497 | 24493 ft | 345 kts | 274° |
| 2026-05-03 21:27 | -32.87112 | -70.13310 | 24243 ft | 350 kts | 275° |
| 2026-05-03 21:28 | -32.86842 | -70.16241 | 24162 ft | 353 kts | 275° |
| 2026-05-03 21:28 | -32.86574 | -70.19146 | 24181 ft | 355 kts | 274° |
| 2026-05-03 21:28 | -32.86305 | -70.22085 | 24139 ft | 359 kts | 274° |
| 2026-05-03 21:28 | -32.86031 | -70.25044 | 24162 ft | 361 kts | 274° |
| 2026-05-03 21:29 | -32.85752 | -70.28016 | 24155 ft | 362 kts | 275° |
| 2026-05-03 21:29 | -32.85469 | -70.30988 | 24165 ft | 362 kts | 275° |
| 2026-05-03 21:29 | -32.85188 | -70.33960 | 24125 ft | 362 kts | 275° |
| 2026-05-03 21:29 | -32.84913 | -70.36898 | 24121 ft | 362 kts | 275° |
| 2026-05-03 21:30 | -32.84637 | -70.39869 | 24119 ft | 360 kts | 275° |
| 2026-05-03 21:30 | -32.84364 | -70.42819 | 24121 ft | 360 kts | 275° |
| 2026-05-03 21:30 | -32.84090 | -70.45776 | 23562 ft | 362 kts | 275° |
| 2026-05-03 21:30 | -32.83815 | -70.48761 | 22513 ft | 363 kts | 275° |
| 2026-05-03 21:31 | -32.83537 | -70.51764 | 21546 ft | 368 kts | 275° |
| 2026-05-03 21:31 | -32.83253 | -70.54805 | 20586 ft | 373 kts | 275° |
| 2026-05-03 21:31 | -32.82963 | -70.57876 | 19665 ft | 371 kts | 275° |
| 2026-05-03 21:31 | -32.82675 | -70.60885 | 18757 ft | 363 kts | 276° |
| 2026-05-03 21:32 | -32.82390 | -70.63846 | 17824 ft | 357 kts | 276° |
| 2026-05-03 21:32 | -32.82108 | -70.66750 | 16847 ft | 351 kts | 276° |
| 2026-05-03 21:32 | -32.81832 | -70.69612 | 15899 ft | 346 kts | 277° |
| 2026-05-03 21:32 | -32.81568 | -70.72437 | 14977 ft | 341 kts | 277° |
| 2026-05-03 21:33 | -32.81329 | -70.75217 | 14069 ft | 336 kts | 276° |
| 2026-05-03 21:33 | -32.81633 | -70.77948 | 13357 ft | 336 kts | 250° |
| 2026-05-03 21:33 | -32.82933 | -70.80199 | 12712 ft | 335 kts | 224° |
| 2026-05-03 21:33 | -32.84991 | -70.81518 | 11883 ft | 342 kts | 195° |
| 2026-05-03 21:34 | -32.87362 | -70.81774 | 11077 ft | 343 kts | 181° |
| 2026-05-03 21:34 | -32.89739 | -70.81660 | 10296 ft | 341 kts | 176° |
| 2026-05-03 21:34 | -32.92099 | -70.81506 | 9478 ft | 338 kts | 182° |
| 2026-05-03 21:34 | -32.94417 | -70.81801 | 8642 ft | 334 kts | 189° |
| 2026-05-03 21:35 | -32.96678 | -70.82271 | 8037 ft | 325 kts | 192° |
| 2026-05-03 21:35 | -32.98819 | -70.82778 | 7873 ft | 302 kts | 189° |
| 2026-05-03 21:35 | -33.00881 | -70.82873 | 7716 ft | 296 kts | 175° |
| 2026-05-03 21:35 | -33.02910 | -70.82540 | 7238 ft | 291 kts | 171° |
| 2026-05-03 21:36 | -33.04895 | -70.82183 | 6744 ft | 286 kts | 175° |
| 2026-05-03 21:36 | -33.06869 | -70.82051 | 6236 ft | 282 kts | 176° |
| 2026-05-03 21:36 | -33.08790 | -70.81933 | 5957 ft | 267 kts | 176° |
| 2026-05-03 21:36 | -33.10583 | -70.81826 | 5898 ft | 251 kts | 177° |
| 2026-05-03 21:37 | -33.12294 | -70.81725 | 5794 ft | 241 kts | 177° |
| 2026-05-03 21:37 | -33.13939 | -70.81629 | 5684 ft | 231 kts | 177° |
| 2026-05-03 21:37 | -33.15490 | -70.81539 | 5588 ft | 221 kts | 177° |
| 2026-05-03 21:37 | -33.17013 | -70.81450 | 5506 ft | 210 kts | 177° |
| 2026-05-03 21:38 | -33.18425 | -70.81368 | 5422 ft | 198 kts | 177° |
| 2026-05-03 21:38 | -33.19745 | -70.81292 | 5273 ft | 189 kts | 177° |
| 2026-05-03 21:38 | -33.21066 | -70.81222 | 4973 ft | 190 kts | 177° |
| 2026-05-03 21:38 | -33.22382 | -70.81152 | 4677 ft | 187 kts | 178° |
| 2026-05-03 21:39 | -33.23633 | -70.81086 | 4433 ft | 170 kts | 178° |
| 2026-05-03 21:39 | -33.24759 | -70.81027 | 4186 ft | 156 kts | 178° |
| 2026-05-03 21:39 | -33.25819 | -70.80971 | 3964 ft | 150 kts | 178° |
| 2026-05-03 21:39 | -33.26853 | -70.80916 | 3757 ft | 146 kts | 179° |
| 2026-05-03 21:40 | -33.27865 | -70.80862 | 3539 ft | 146 kts | 179° |
| 2026-05-03 21:40 | -33.28880 | -70.80808 | 3345 ft | 145 kts | 180° |
| 2026-05-03 21:40 | -33.29879 | -70.80755 | 3133 ft | 142 kts | 180° |
| 2026-05-03 21:40 | -33.30864 | -70.80705 | 2923 ft | 142 kts | 179° |
| 2026-05-03 21:41 | -33.31850 | -70.80653 | 2725 ft | 141 kts | 179° |
| 2026-05-03 21:41 | -33.32821 | -70.80603 | 2518 ft | 139 kts | 179° |
| 2026-05-03 21:41 | -33.33782 | -70.80572 | 2298 ft | 138 kts | 176° |
| 2026-05-03 21:41 | -33.34745 | -70.80500 | 2082 ft | 138 kts | 178° |
| 2026-05-03 21:42 | -33.35702 | -70.80456 | 1842 ft | 137 kts | 176° |
| 2026-05-03 21:42 | -33.36654 | -70.80409 | 1715 ft | 137 kts | 177° |
| 2026-05-03 21:42 | -33.37606 | -70.80353 | 1588 ft | 136 kts | 176° |
| 2026-05-03 21:42 | -33.38418 | -70.80305 | 1573 ft | 93 kts | 177° |
| 2026-05-03 21:43 | -33.38890 | -70.80280 | 1574 ft | 43 kts | 178° |
| 2026-05-03 21:43 | -33.39150 | -70.80267 | 1573 ft | 35 kts | 176° |
| 2026-05-03 21:43 | -33.39324 | -70.80202 | 1571 ft | 8 kts | 150° |
| 2026-05-03 21:43 | -33.39375 | -70.80165 | 1570 ft | 11 kts | 146° |
| 2026-05-03 21:44 | -33.39449 | -70.80106 | 1567 ft | 14 kts | 147° |
| 2026-05-03 21:44 | -33.39521 | -70.80047 | 1566 ft | 13 kts | 152° |
| 2026-05-03 21:44 | -33.39615 | -70.80036 | 1566 ft | 14 kts | 179° |
| 2026-05-03 21:44 | -33.39717 | -70.80032 | 1566 ft | 15 kts | 177° |
| 2026-05-03 21:45 | -33.39827 | -70.80026 | 1566 ft | 17 kts | 177° |
| 2026-05-03 21:45 | -33.39950 | -70.80019 | 1566 ft | 18 kts | 176° |
| 2026-05-03 21:45 | -33.40062 | -70.80010 | 1568 ft | 16 kts | 176° |
| 2026-05-03 21:45 | -33.40100 | -70.80007 | 1567 ft | 1 kts | 175° |
| 2026-05-03 21:46 | -33.40142 | -70.79996 | 1566 ft | 13 kts | 155° |
| 2026-05-03 21:46 | -33.40135 | -70.79907 | 1565 ft | 14 kts | 17° |
| 2026-05-03 21:46 | -33.40066 | -70.79902 | 1565 ft | 15 kts | 360° |
| 2026-05-03 21:46 | -33.39973 | -70.79909 | 1565 ft | 10 kts | 354° |
| 2026-05-03 21:47 | -33.39895 | -70.79916 | 1565 ft | 12 kts | 355° |
| 2026-05-03 21:47 | -33.39838 | -70.79875 | 1565 ft | 11 kts | 84° |
| 2026-05-03 21:47 | -33.39838 | -70.79854 | 1565 ft | 2 kts | 91° |
| 2026-05-03 21:47 | -33.39840 | -70.79829 | 1565 ft | 4 kts | 97° |
| 2026-05-03 21:48 | -33.39853 | -70.79790 | 1565 ft | 6 kts | 118° |
| 2026-05-03 21:48 | -33.39860 | -70.79738 | 1565 ft | 4 kts | 111° |
| 2026-05-03 21:48 | -33.39878 | -70.79732 | 1564 ft | 3 kts | 139° |
| 2026-05-03 21:48 | -33.39896 | -70.79712 | 1564 ft | 4 kts | 151° |
| 2026-05-03 21:49 | -33.39916 | -70.79708 | 1564 ft | 0 kts | 173° |
| 2026-05-03 21:49 | -33.39920 | -70.79708 | 1564 ft | 0 kts | 176° |
| 2026-05-03 22:03 | -33.39919 | -70.79708 | 1565 ft | 0 kts | 176° |